sensor_id;sensor_type;location;lat;lon;timestamp;P1;durP1;ratioP1;P2;durP2;ratioP2
39454;SDS011;25155;41.890;23.446;2022-10-31T00:01:01;8.63;;;4.22;;
39454;SDS011;25155;41.890;23.446;2022-10-31T00:03:35;6.85;;;3.63;;
39454;SDS011;25155;41.890;23.446;2022-10-31T00:06:04;7.43;;;4.30;;
39454;SDS011;25155;41.890;23.446;2022-10-31T00:08:32;7.80;;;4.60;;
39454;SDS011;25155;41.890;23.446;2022-10-31T00:11:00;5.47;;;3.45;;
39454;SDS011;25155;41.890;23.446;2022-10-31T00:13:27;6.80;;;3.65;;
39454;SDS011;25155;41.890;23.446;2022-10-31T00:15:54;7.85;;;3.35;;
39454;SDS011;25155;41.890;23.446;2022-10-31T00:18:22;4.97;;;3.00;;
39454;SDS011;25155;41.890;23.446;2022-10-31T00:20:57;5.82;;;2.97;;
39454;SDS011;25155;41.890;23.446;2022-10-31T00:23:27;4.80;;;2.90;;
39454;SDS011;25155;41.890;23.446;2022-10-31T00:25:59;5.70;;;3.35;;
39454;SDS011;25155;41.890;23.446;2022-10-31T00:28:28;20.83;;;14.45;;
39454;SDS011;25155;41.890;23.446;2022-10-31T00:30:58;14.10;;;9.60;;
39454;SDS011;25155;41.890;23.446;2022-10-31T00:33:26;11.25;;;7.38;;
39454;SDS011;25155;41.890;23.446;2022-10-31T00:35:55;29.73;;;19.58;;
39454;SDS011;25155;41.890;23.446;2022-10-31T00:38:23;20.35;;;11.40;;
39454;SDS011;25155;41.890;23.446;2022-10-31T00:40:52;17.65;;;11.52;;
39454;SDS011;25155;41.890;23.446;2022-10-31T00:43:20;20.08;;;12.63;;
39454;SDS011;25155;41.890;23.446;2022-10-31T00:45:47;28.40;;;16.10;;
39454;SDS011;25155;41.890;23.446;2022-10-31T00:48:15;21.95;;;14.00;;
39454;SDS011;25155;41.890;23.446;2022-10-31T00:50:43;19.70;;;13.10;;
39454;SDS011;25155;41.890;23.446;2022-10-31T00:53:10;20.05;;;13.23;;
39454;SDS011;25155;41.890;23.446;2022-10-31T00:55:37;18.08;;;11.43;;
39454;SDS011;25155;41.890;23.446;2022-10-31T00:58:07;19.30;;;11.18;;
39454;SDS011;25155;41.890;23.446;2022-10-31T01:00:34;14.75;;;9.18;;
39454;SDS011;25155;41.890;23.446;2022-10-31T01:03:02;13.65;;;9.20;;
39454;SDS011;25155;41.890;23.446;2022-10-31T01:05:29;20.17;;;11.25;;
39454;SDS011;25155;41.890;23.446;2022-10-31T01:07:56;14.77;;;8.95;;
39454;SDS011;25155;41.890;23.446;2022-10-31T01:10:24;13.82;;;8.48;;
39454;SDS011;25155;41.890;23.446;2022-10-31T01:12:52;12.40;;;8.10;;
39454;SDS011;25155;41.890;23.446;2022-10-31T01:15:21;11.80;;;7.03;;
39454;SDS011;25155;41.890;23.446;2022-10-31T01:17:49;10.32;;;5.88;;
39454;SDS011;25155;41.890;23.446;2022-10-31T01:20:17;13.05;;;7.30;;
39454;SDS011;25155;41.890;23.446;2022-10-31T01:22:44;11.48;;;7.30;;
39454;SDS011;25155;41.890;23.446;2022-10-31T01:25:12;9.75;;;6.40;;
39454;SDS011;25155;41.890;23.446;2022-10-31T01:27:39;10.20;;;6.25;;
39454;SDS011;25155;41.890;23.446;2022-10-31T01:30:07;9.55;;;5.88;;
39454;SDS011;25155;41.890;23.446;2022-10-31T01:32:37;11.30;;;6.03;;
39454;SDS011;25155;41.890;23.446;2022-10-31T01:35:04;15.63;;;8.82;;
39454;SDS011;25155;41.890;23.446;2022-10-31T01:37:32;10.63;;;6.43;;
39454;SDS011;25155;41.890;23.446;2022-10-31T01:40:00;11.10;;;6.03;;
39454;SDS011;25155;41.890;23.446;2022-10-31T01:42:27;8.18;;;5.00;;
39454;SDS011;25155;41.890;23.446;2022-10-31T01:44:58;16.58;;;8.25;;
39454;SDS011;25155;41.890;23.446;2022-10-31T01:47:30;9.52;;;6.00;;
39454;SDS011;25155;41.890;23.446;2022-10-31T01:50:05;8.35;;;5.30;;
39454;SDS011;25155;41.890;23.446;2022-10-31T01:52:38;11.95;;;6.05;;
39454;SDS011;25155;41.890;23.446;2022-10-31T01:55:09;12.60;;;7.72;;
39454;SDS011;25155;41.890;23.446;2022-10-31T01:57:40;11.98;;;6.95;;
39454;SDS011;25155;41.890;23.446;2022-10-31T02:00:12;10.35;;;6.60;;
39454;SDS011;25155;41.890;23.446;2022-10-31T02:02:40;12.77;;;6.75;;
39454;SDS011;25155;41.890;23.446;2022-10-31T02:05:12;7.53;;;4.88;;
39454;SDS011;25155;41.890;23.446;2022-10-31T02:07:44;11.32;;;6.15;;
39454;SDS011;25155;41.890;23.446;2022-10-31T02:10:17;26.38;;;16.38;;
39454;SDS011;25155;41.890;23.446;2022-10-31T02:12:47;19.63;;;12.80;;
39454;SDS011;25155;41.890;23.446;2022-10-31T02:15:15;22.60;;;14.95;;
39454;SDS011;25155;41.890;23.446;2022-10-31T02:17:43;18.52;;;11.05;;
39454;SDS011;25155;41.890;23.446;2022-10-31T02:20:14;19.23;;;12.02;;
39454;SDS011;25155;41.890;23.446;2022-10-31T02:22:49;24.77;;;16.20;;
39454;SDS011;25155;41.890;23.446;2022-10-31T02:25:42;29.15;;;17.02;;
39454;SDS011;25155;41.890;23.446;2022-10-31T02:28:29;23.58;;;14.50;;
39454;SDS011;25155;41.890;23.446;2022-10-31T02:31:18;18.15;;;12.20;;
39454;SDS011;25155;41.890;23.446;2022-10-31T02:33:55;28.80;;;18.33;;
39454;SDS011;25155;41.890;23.446;2022-10-31T02:36:30;25.17;;;15.32;;
39454;SDS011;25155;41.890;23.446;2022-10-31T02:39:08;16.27;;;10.65;;
39454;SDS011;25155;41.890;23.446;2022-10-31T02:41:46;21.10;;;12.05;;
39454;SDS011;25155;41.890;23.446;2022-10-31T02:44:21;23.17;;;15.38;;
39454;SDS011;25155;41.890;23.446;2022-10-31T02:46:57;24.60;;;15.40;;
39454;SDS011;25155;41.890;23.446;2022-10-31T02:49:31;20.48;;;13.77;;
39454;SDS011;25155;41.890;23.446;2022-10-31T02:52:13;19.73;;;11.65;;
39454;SDS011;25155;41.890;23.446;2022-10-31T02:54:41;21.48;;;15.45;;
39454;SDS011;25155;41.890;23.446;2022-10-31T02:57:10;22.77;;;13.73;;
39454;SDS011;25155;41.890;23.446;2022-10-31T02:59:38;21.30;;;13.73;;
39454;SDS011;25155;41.890;23.446;2022-10-31T03:02:18;16.17;;;11.32;;
39454;SDS011;25155;41.890;23.446;2022-10-31T03:08:02;14.27;;;9.63;;
39454;SDS011;25155;41.890;23.446;2022-10-31T03:10:39;14.45;;;9.00;;
39454;SDS011;25155;41.890;23.446;2022-10-31T03:13:11;11.73;;;8.00;;
39454;SDS011;25155;41.890;23.446;2022-10-31T03:15:45;10.30;;;6.25;;
39454;SDS011;25155;41.890;23.446;2022-10-31T03:18:18;15.38;;;8.15;;
39454;SDS011;25155;41.890;23.446;2022-10-31T03:20:52;10.88;;;6.35;;
39454;SDS011;25155;41.890;23.446;2022-10-31T03:23:26;10.23;;;6.07;;
39454;SDS011;25155;41.890;23.446;2022-10-31T03:25:54;11.90;;;7.43;;
39454;SDS011;25155;41.890;23.446;2022-10-31T03:28:23;13.45;;;8.80;;
39454;SDS011;25155;41.890;23.446;2022-10-31T03:30:55;15.75;;;9.52;;
39454;SDS011;25155;41.890;23.446;2022-10-31T03:33:27;12.43;;;7.35;;
39454;SDS011;25155;41.890;23.446;2022-10-31T03:35:57;21.67;;;10.35;;
39454;SDS011;25155;41.890;23.446;2022-10-31T03:38:29;16.85;;;9.63;;
39454;SDS011;25155;41.890;23.446;2022-10-31T03:40:58;14.50;;;8.70;;
39454;SDS011;25155;41.890;23.446;2022-10-31T03:43:32;12.07;;;7.47;;
39454;SDS011;25155;41.890;23.446;2022-10-31T03:46:04;13.75;;;8.07;;
39454;SDS011;25155;41.890;23.446;2022-10-31T03:48:34;13.23;;;8.60;;
39454;SDS011;25155;41.890;23.446;2022-10-31T03:51:04;11.10;;;7.30;;
39454;SDS011;25155;41.890;23.446;2022-10-31T03:53:39;12.05;;;7.18;;
39454;SDS011;25155;41.890;23.446;2022-10-31T03:56:12;11.48;;;7.68;;
39454;SDS011;25155;41.890;23.446;2022-10-31T03:58:47;9.88;;;6.75;;
39454;SDS011;25155;41.890;23.446;2022-10-31T04:01:19;14.73;;;9.10;;
39454;SDS011;25155;41.890;23.446;2022-10-31T04:03:50;13.02;;;8.70;;
39454;SDS011;25155;41.890;23.446;2022-10-31T04:06:18;17.65;;;11.38;;
39454;SDS011;25155;41.890;23.446;2022-10-31T04:08:49;25.33;;;15.38;;
39454;SDS011;25155;41.890;23.446;2022-10-31T04:11:21;18.20;;;11.82;;
39454;SDS011;25155;41.890;23.446;2022-10-31T04:13:52;14.65;;;9.90;;
39454;SDS011;25155;41.890;23.446;2022-10-31T04:16:21;13.60;;;7.95;;
39454;SDS011;25155;41.890;23.446;2022-10-31T04:18:52;17.83;;;11.88;;
39454;SDS011;25155;41.890;23.446;2022-10-31T04:21:26;18.80;;;11.63;;
39454;SDS011;25155;41.890;23.446;2022-10-31T04:23:53;25.40;;;16.30;;
39454;SDS011;25155;41.890;23.446;2022-10-31T04:26:21;36.65;;;19.45;;
39454;SDS011;25155;41.890;23.446;2022-10-31T04:28:49;28.27;;;18.80;;
39454;SDS011;25155;41.890;23.446;2022-10-31T04:31:17;22.38;;;15.02;;
39454;SDS011;25155;41.890;23.446;2022-10-31T04:33:44;20.30;;;13.55;;
39454;SDS011;25155;41.890;23.446;2022-10-31T04:36:13;20.77;;;13.35;;
39454;SDS011;25155;41.890;23.446;2022-10-31T04:38:41;15.35;;;10.38;;
39454;SDS011;25155;41.890;23.446;2022-10-31T04:41:08;13.32;;;9.43;;
39454;SDS011;25155;41.890;23.446;2022-10-31T04:43:36;15.30;;;9.18;;
39454;SDS011;25155;41.890;23.446;2022-10-31T04:46:03;28.45;;;16.73;;
39454;SDS011;25155;41.890;23.446;2022-10-31T04:48:31;21.67;;;12.27;;
39454;SDS011;25155;41.890;23.446;2022-10-31T04:50:58;24.98;;;15.63;;
39454;SDS011;25155;41.890;23.446;2022-10-31T04:53:28;21.92;;;14.02;;
39454;SDS011;25155;41.890;23.446;2022-10-31T04:55:57;19.25;;;13.38;;
39454;SDS011;25155;41.890;23.446;2022-10-31T04:58:25;15.02;;;10.43;;
39454;SDS011;25155;41.890;23.446;2022-10-31T05:00:53;18.30;;;11.40;;
39454;SDS011;25155;41.890;23.446;2022-10-31T05:03:21;15.00;;;10.20;;
39454;SDS011;25155;41.890;23.446;2022-10-31T05:05:48;18.40;;;11.63;;
39454;SDS011;25155;41.890;23.446;2022-10-31T05:08:16;18.23;;;11.27;;
39454;SDS011;25155;41.890;23.446;2022-10-31T05:10:48;16.55;;;12.82;;
39454;SDS011;25155;41.890;23.446;2022-10-31T05:15:42;20.05;;;13.50;;
39454;SDS011;25155;41.890;23.446;2022-10-31T05:18:10;20.15;;;13.25;;
39454;SDS011;25155;41.890;23.446;2022-10-31T05:20:38;22.67;;;14.20;;
39454;SDS011;25155;41.890;23.446;2022-10-31T05:23:06;15.60;;;11.00;;
39454;SDS011;25155;41.890;23.446;2022-10-31T05:25:33;17.77;;;11.98;;
39454;SDS011;25155;41.890;23.446;2022-10-31T05:28:02;17.30;;;11.32;;
39454;SDS011;25155;41.890;23.446;2022-10-31T05:30:30;17.40;;;10.82;;
39454;SDS011;25155;41.890;23.446;2022-10-31T05:32:59;18.80;;;11.90;;
39454;SDS011;25155;41.890;23.446;2022-10-31T05:35:27;14.43;;;9.23;;
39454;SDS011;25155;41.890;23.446;2022-10-31T05:37:57;18.80;;;10.73;;
39454;SDS011;25155;41.890;23.446;2022-10-31T05:40:26;17.58;;;11.13;;
39454;SDS011;25155;41.890;23.446;2022-10-31T05:42:54;15.50;;;11.15;;
39454;SDS011;25155;41.890;23.446;2022-10-31T05:45:25;16.58;;;11.13;;
39454;SDS011;25155;41.890;23.446;2022-10-31T05:47:52;14.38;;;9.45;;
39454;SDS011;25155;41.890;23.446;2022-10-31T05:50:22;12.95;;;8.95;;
39454;SDS011;25155;41.890;23.446;2022-10-31T05:52:54;12.70;;;9.00;;
39454;SDS011;25155;41.890;23.446;2022-10-31T05:55:22;12.38;;;8.38;;
39454;SDS011;25155;41.890;23.446;2022-10-31T05:57:51;14.13;;;9.45;;
39454;SDS011;25155;41.890;23.446;2022-10-31T06:00:19;14.57;;;10.15;;
39454;SDS011;25155;41.890;23.446;2022-10-31T06:02:49;15.35;;;10.43;;
39454;SDS011;25155;41.890;23.446;2022-10-31T06:05:23;23.92;;;13.32;;
39454;SDS011;25155;41.890;23.446;2022-10-31T06:07:52;16.13;;;11.57;;
39454;SDS011;25155;41.890;23.446;2022-10-31T06:10:19;11.95;;;8.77;;
39454;SDS011;25155;41.890;23.446;2022-10-31T06:12:47;10.70;;;7.13;;
39454;SDS011;25155;41.890;23.446;2022-10-31T06:15:15;16.77;;;10.57;;
39454;SDS011;25155;41.890;23.446;2022-10-31T06:17:43;13.00;;;8.38;;
39454;SDS011;25155;41.890;23.446;2022-10-31T06:20:12;11.77;;;7.75;;
39454;SDS011;25155;41.890;23.446;2022-10-31T06:22:39;13.57;;;9.40;;
39454;SDS011;25155;41.890;23.446;2022-10-31T06:25:07;15.40;;;11.38;;
39454;SDS011;25155;41.890;23.446;2022-10-31T06:27:35;16.85;;;11.38;;
39454;SDS011;25155;41.890;23.446;2022-10-31T06:30:02;14.18;;;9.57;;
39454;SDS011;25155;41.890;23.446;2022-10-31T06:32:31;11.75;;;8.35;;
39454;SDS011;25155;41.890;23.446;2022-10-31T06:34:59;12.57;;;8.38;;
39454;SDS011;25155;41.890;23.446;2022-10-31T06:37:28;15.48;;;9.70;;
39454;SDS011;25155;41.890;23.446;2022-10-31T06:39:55;18.15;;;12.55;;
39454;SDS011;25155;41.890;23.446;2022-10-31T06:42:25;12.23;;;7.65;;
39454;SDS011;25155;41.890;23.446;2022-10-31T06:44:54;15.25;;;10.13;;
39454;SDS011;25155;41.890;23.446;2022-10-31T06:47:22;18.90;;;12.32;;
39454;SDS011;25155;41.890;23.446;2022-10-31T06:49:49;25.10;;;15.45;;
39454;SDS011;25155;41.890;23.446;2022-10-31T06:52:17;18.83;;;13.65;;
39454;SDS011;25155;41.890;23.446;2022-10-31T06:54:46;25.48;;;15.93;;
39454;SDS011;25155;41.890;23.446;2022-10-31T06:57:14;20.58;;;13.20;;
39454;SDS011;25155;41.890;23.446;2022-10-31T06:59:58;14.00;;;10.23;;
39454;SDS011;25155;41.890;23.446;2022-10-31T07:02:28;15.25;;;9.00;;
39454;SDS011;25155;41.890;23.446;2022-10-31T07:04:58;11.27;;;7.53;;
39454;SDS011;25155;41.890;23.446;2022-10-31T07:07:30;28.08;;;20.20;;
39454;SDS011;25155;41.890;23.446;2022-10-31T07:10:17;43.47;;;32.63;;
39454;SDS011;25155;41.890;23.446;2022-10-31T07:12:58;37.78;;;26.85;;
39454;SDS011;25155;41.890;23.446;2022-10-31T07:15:37;44.13;;;30.63;;
39454;SDS011;25155;41.890;23.446;2022-10-31T07:18:14;31.60;;;22.10;;
39454;SDS011;25155;41.890;23.446;2022-10-31T07:20:42;18.40;;;12.90;;
39454;SDS011;25155;41.890;23.446;2022-10-31T07:23:10;12.95;;;8.40;;
39454;SDS011;25155;41.890;23.446;2022-10-31T07:25:39;13.30;;;9.52;;
39454;SDS011;25155;41.890;23.446;2022-10-31T07:28:08;24.30;;;18.48;;
39454;SDS011;25155;41.890;23.446;2022-10-31T07:30:36;28.77;;;20.70;;
39454;SDS011;25155;41.890;23.446;2022-10-31T07:33:04;27.67;;;19.38;;
39454;SDS011;25155;41.890;23.446;2022-10-31T07:35:32;40.95;;;29.58;;
39454;SDS011;25155;41.890;23.446;2022-10-31T07:38:06;21.85;;;15.90;;
39454;SDS011;25155;41.890;23.446;2022-10-31T07:40:35;16.38;;;12.15;;
39454;SDS011;25155;41.890;23.446;2022-10-31T07:43:05;16.67;;;11.43;;
39454;SDS011;25155;41.890;23.446;2022-10-31T07:45:33;10.15;;;7.45;;
39454;SDS011;25155;41.890;23.446;2022-10-31T07:48:01;12.40;;;8.73;;
39454;SDS011;25155;41.890;23.446;2022-10-31T07:50:30;23.25;;;16.25;;
39454;SDS011;25155;41.890;23.446;2022-10-31T07:52:59;39.22;;;30.02;;
39454;SDS011;25155;41.890;23.446;2022-10-31T07:55:31;37.60;;;27.52;;
39454;SDS011;25155;41.890;23.446;2022-10-31T07:58:00;32.70;;;23.60;;
39454;SDS011;25155;41.890;23.446;2022-10-31T08:00:43;35.38;;;27.15;;
39454;SDS011;25155;41.890;23.446;2022-10-31T08:03:19;36.35;;;27.40;;
39454;SDS011;25155;41.890;23.446;2022-10-31T08:05:47;33.42;;;24.70;;
39454;SDS011;25155;41.890;23.446;2022-10-31T08:08:15;19.60;;;15.55;;
39454;SDS011;25155;41.890;23.446;2022-10-31T08:10:42;26.67;;;20.65;;
39454;SDS011;25155;41.890;23.446;2022-10-31T08:13:11;27.55;;;21.10;;
39454;SDS011;25155;41.890;23.446;2022-10-31T08:15:40;27.00;;;19.63;;
39454;SDS011;25155;41.890;23.446;2022-10-31T08:18:15;24.83;;;19.55;;
39454;SDS011;25155;41.890;23.446;2022-10-31T08:20:43;21.45;;;16.90;;
39454;SDS011;25155;41.890;23.446;2022-10-31T08:23:10;27.17;;;21.02;;
39454;SDS011;25155;41.890;23.446;2022-10-31T08:25:39;28.63;;;20.85;;
39454;SDS011;25155;41.890;23.446;2022-10-31T08:28:09;21.25;;;16.17;;
39454;SDS011;25155;41.890;23.446;2022-10-31T08:30:38;14.80;;;11.15;;
39454;SDS011;25155;41.890;23.446;2022-10-31T08:33:13;13.10;;;9.20;;
39454;SDS011;25155;41.890;23.446;2022-10-31T08:35:42;15.73;;;10.07;;
39454;SDS011;25155;41.890;23.446;2022-10-31T08:38:10;14.95;;;9.52;;
39454;SDS011;25155;41.890;23.446;2022-10-31T08:40:39;10.85;;;7.85;;
39454;SDS011;25155;41.890;23.446;2022-10-31T08:43:09;10.85;;;6.93;;
39454;SDS011;25155;41.890;23.446;2022-10-31T08:45:39;6.95;;;4.90;;
39454;SDS011;25155;41.890;23.446;2022-10-31T08:48:10;10.13;;;6.30;;
39454;SDS011;25155;41.890;23.446;2022-10-31T08:50:40;8.38;;;5.85;;
39454;SDS011;25155;41.890;23.446;2022-10-31T08:53:09;8.65;;;5.35;;
39454;SDS011;25155;41.890;23.446;2022-10-31T08:55:40;7.20;;;4.90;;
39454;SDS011;25155;41.890;23.446;2022-10-31T08:58:10;9.60;;;5.70;;
39454;SDS011;25155;41.890;23.446;2022-10-31T09:00:39;5.40;;;3.75;;
39454;SDS011;25155;41.890;23.446;2022-10-31T09:03:10;8.57;;;4.82;;
39454;SDS011;25155;41.890;23.446;2022-10-31T09:05:39;15.45;;;8.68;;
39454;SDS011;25155;41.890;23.446;2022-10-31T09:08:09;11.02;;;7.50;;
39454;SDS011;25155;41.890;23.446;2022-10-31T09:10:38;9.00;;;5.75;;
39454;SDS011;25155;41.890;23.446;2022-10-31T09:13:08;8.35;;;5.65;;
39454;SDS011;25155;41.890;23.446;2022-10-31T09:15:38;9.13;;;6.20;;
39454;SDS011;25155;41.890;23.446;2022-10-31T09:18:08;11.43;;;8.32;;
39454;SDS011;25155;41.890;23.446;2022-10-31T09:20:38;13.18;;;9.13;;
39454;SDS011;25155;41.890;23.446;2022-10-31T09:23:11;11.00;;;6.65;;
39454;SDS011;25155;41.890;23.446;2022-10-31T09:25:40;10.52;;;6.13;;
39454;SDS011;25155;41.890;23.446;2022-10-31T09:28:10;8.30;;;4.70;;
39454;SDS011;25155;41.890;23.446;2022-10-31T09:30:40;5.20;;;3.03;;
39454;SDS011;25155;41.890;23.446;2022-10-31T09:33:11;6.85;;;3.45;;
39454;SDS011;25155;41.890;23.446;2022-10-31T09:35:39;4.45;;;2.10;;
39454;SDS011;25155;41.890;23.446;2022-10-31T09:38:08;6.25;;;2.40;;
39454;SDS011;25155;41.890;23.446;2022-10-31T09:43:11;6.28;;;2.55;;
39454;SDS011;25155;41.890;23.446;2022-10-31T09:45:46;7.72;;;2.80;;
39454;SDS011;25155;41.890;23.446;2022-10-31T09:48:34;5.68;;;2.90;;
39454;SDS011;25155;41.890;23.446;2022-10-31T09:51:28;4.00;;;2.00;;
39454;SDS011;25155;41.890;23.446;2022-10-31T09:54:00;5.53;;;2.67;;
39454;SDS011;25155;41.890;23.446;2022-10-31T09:56:32;5.13;;;2.40;;
39454;SDS011;25155;41.890;23.446;2022-10-31T09:59:01;3.92;;;2.03;;
39454;SDS011;25155;41.890;23.446;2022-10-31T10:01:40;5.07;;;2.47;;
39454;SDS011;25155;41.890;23.446;2022-10-31T10:04:26;4.40;;;2.28;;
39454;SDS011;25155;41.890;23.446;2022-10-31T10:07:12;3.72;;;2.00;;
39454;SDS011;25155;41.890;23.446;2022-10-31T10:09:48;5.13;;;2.00;;
39454;SDS011;25155;41.890;23.446;2022-10-31T10:12:26;3.13;;;1.80;;
39454;SDS011;25155;41.890;23.446;2022-10-31T10:18:19;6.10;;;2.40;;
39454;SDS011;25155;41.890;23.446;2022-10-31T10:20:59;3.90;;;1.90;;
39454;SDS011;25155;41.890;23.446;2022-10-31T10:23:38;4.95;;;2.20;;
39454;SDS011;25155;41.890;23.446;2022-10-31T10:26:15;6.07;;;2.35;;
39454;SDS011;25155;41.890;23.446;2022-10-31T10:28:45;4.68;;;1.75;;
39454;SDS011;25155;41.890;23.446;2022-10-31T10:31:18;5.65;;;2.53;;
39454;SDS011;25155;41.890;23.446;2022-10-31T10:33:56;4.90;;;1.90;;
39454;SDS011;25155;41.890;23.446;2022-10-31T10:36:32;3.58;;;1.90;;
39454;SDS011;25155;41.890;23.446;2022-10-31T10:39:08;3.92;;;1.90;;
39454;SDS011;25155;41.890;23.446;2022-10-31T10:41:43;6.07;;;2.03;;
39454;SDS011;25155;41.890;23.446;2022-10-31T10:44:27;4.47;;;1.90;;
39454;SDS011;25155;41.890;23.446;2022-10-31T10:47:11;5.40;;;2.00;;
39454;SDS011;25155;41.890;23.446;2022-10-31T10:49:56;4.15;;;2.15;;
39454;SDS011;25155;41.890;23.446;2022-10-31T10:52:29;3.10;;;1.77;;
39454;SDS011;25155;41.890;23.446;2022-10-31T10:55:06;3.08;;;1.80;;
39454;SDS011;25155;41.890;23.446;2022-10-31T10:57:50;4.07;;;1.80;;
39454;SDS011;25155;41.890;23.446;2022-10-31T11:00:23;3.83;;;1.77;;
39454;SDS011;25155;41.890;23.446;2022-10-31T11:02:52;5.50;;;2.10;;
39454;SDS011;25155;41.890;23.446;2022-10-31T11:05:24;3.97;;;2.13;;
39454;SDS011;25155;41.890;23.446;2022-10-31T11:07:58;6.30;;;2.08;;
39454;SDS011;25155;41.890;23.446;2022-10-31T11:10:26;4.75;;;2.00;;
39454;SDS011;25155;41.890;23.446;2022-10-31T11:12:58;3.53;;;1.70;;
39454;SDS011;25155;41.890;23.446;2022-10-31T11:15:31;4.57;;;2.05;;
39454;SDS011;25155;41.890;23.446;2022-10-31T11:18:02;5.43;;;2.17;;
39454;SDS011;25155;41.890;23.446;2022-10-31T11:20:32;2.95;;;1.90;;
39454;SDS011;25155;41.890;23.446;2022-10-31T11:23:04;3.63;;;1.98;;
39454;SDS011;25155;41.890;23.446;2022-10-31T11:25:52;4.05;;;2.00;;
39454;SDS011;25155;41.890;23.446;2022-10-31T11:28:24;6.90;;;2.15;;
39454;SDS011;25155;41.890;23.446;2022-10-31T11:30:52;4.53;;;2.00;;
39454;SDS011;25155;41.890;23.446;2022-10-31T11:33:24;4.03;;;1.90;;
39454;SDS011;25155;41.890;23.446;2022-10-31T11:35:56;4.63;;;1.95;;
39454;SDS011;25155;41.890;23.446;2022-10-31T11:38:26;4.85;;;2.13;;
39454;SDS011;25155;41.890;23.446;2022-10-31T11:41:02;2.80;;;1.80;;
39454;SDS011;25155;41.890;23.446;2022-10-31T11:43:37;3.15;;;1.77;;
39454;SDS011;25155;41.890;23.446;2022-10-31T11:46:10;4.50;;;1.60;;
39454;SDS011;25155;41.890;23.446;2022-10-31T11:48:45;4.22;;;2.05;;
39454;SDS011;25155;41.890;23.446;2022-10-31T11:51:19;3.30;;;2.00;;
39454;SDS011;25155;41.890;23.446;2022-10-31T11:53:51;2.38;;;1.70;;
39454;SDS011;25155;41.890;23.446;2022-10-31T11:56:20;4.65;;;2.08;;
39454;SDS011;25155;41.890;23.446;2022-10-31T11:58:54;4.28;;;1.98;;
39454;SDS011;25155;41.890;23.446;2022-10-31T12:01:24;3.45;;;1.70;;
39454;SDS011;25155;41.890;23.446;2022-10-31T12:03:57;2.92;;;1.60;;
39454;SDS011;25155;41.890;23.446;2022-10-31T12:06:32;5.15;;;2.00;;
39454;SDS011;25155;41.890;23.446;2022-10-31T12:09:04;4.75;;;2.30;;
39454;SDS011;25155;41.890;23.446;2022-10-31T12:11:46;3.58;;;1.60;;
39454;SDS011;25155;41.890;23.446;2022-10-31T12:17:01;2.80;;;1.60;;
39454;SDS011;25155;41.890;23.446;2022-10-31T12:19:35;7.25;;;2.20;;
39454;SDS011;25155;41.890;23.446;2022-10-31T12:22:08;4.80;;;2.60;;
39454;SDS011;25155;41.890;23.446;2022-10-31T12:24:58;5.95;;;1.95;;
39454;SDS011;25155;41.890;23.446;2022-10-31T12:30:15;4.80;;;2.17;;
39454;SDS011;25155;41.890;23.446;2022-10-31T12:32:53;3.40;;;2.10;;
39454;SDS011;25155;41.890;23.446;2022-10-31T12:35:37;6.35;;;2.20;;
39454;SDS011;25155;41.890;23.446;2022-10-31T12:38:18;3.22;;;1.73;;
39454;SDS011;25155;41.890;23.446;2022-10-31T12:41:01;4.70;;;2.47;;
39454;SDS011;25155;41.890;23.446;2022-10-31T12:43:39;2.50;;;1.73;;
39454;SDS011;25155;41.890;23.446;2022-10-31T12:46:16;5.22;;;2.42;;
39454;SDS011;25155;41.890;23.446;2022-10-31T12:49:03;3.95;;;2.00;;
39454;SDS011;25155;41.890;23.446;2022-10-31T12:51:57;4.23;;;1.87;;
39454;SDS011;25155;41.890;23.446;2022-10-31T12:54:37;5.35;;;1.88;;
39454;SDS011;25155;41.890;23.446;2022-10-31T12:57:19;3.30;;;1.60;;
39454;SDS011;25155;41.890;23.446;2022-10-31T12:59:56;3.35;;;1.88;;
39454;SDS011;25155;41.890;23.446;2022-10-31T13:02:27;2.47;;;1.55;;
39454;SDS011;25155;41.890;23.446;2022-10-31T13:05:00;3.25;;;1.30;;
39454;SDS011;25155;41.890;23.446;2022-10-31T13:07:31;4.32;;;1.83;;
39454;SDS011;25155;41.890;23.446;2022-10-31T13:10:05;2.22;;;1.33;;
39454;SDS011;25155;41.890;23.446;2022-10-31T13:12:42;8.02;;;1.95;;
39454;SDS011;25155;41.890;23.446;2022-10-31T13:15:14;6.10;;;2.20;;
39454;SDS011;25155;41.890;23.446;2022-10-31T13:17:46;4.65;;;2.00;;
39454;SDS011;25155;41.890;23.446;2022-10-31T13:20:19;5.90;;;2.10;;
39454;SDS011;25155;41.890;23.446;2022-10-31T13:22:51;22.17;;;3.92;;
39454;SDS011;25155;41.890;23.446;2022-10-31T13:25:23;4.75;;;2.10;;
39454;SDS011;25155;41.890;23.446;2022-10-31T13:27:57;4.80;;;1.73;;
39454;SDS011;25155;41.890;23.446;2022-10-31T13:30:28;4.15;;;1.83;;
39454;SDS011;25155;41.890;23.446;2022-10-31T13:32:59;1.30;;;1.03;;
39454;SDS011;25155;41.890;23.446;2022-10-31T13:35:32;4.60;;;2.20;;
39454;SDS011;25155;41.890;23.446;2022-10-31T13:38:11;4.07;;;2.10;;
39454;SDS011;25155;41.890;23.446;2022-10-31T13:40:50;5.22;;;2.20;;
39454;SDS011;25155;41.890;23.446;2022-10-31T13:43:28;4.15;;;2.10;;
39454;SDS011;25155;41.890;23.446;2022-10-31T13:46:00;2.97;;;1.52;;
39454;SDS011;25155;41.890;23.446;2022-10-31T13:48:35;3.63;;;1.90;;
39454;SDS011;25155;41.890;23.446;2022-10-31T13:51:07;2.92;;;1.50;;
39454;SDS011;25155;41.890;23.446;2022-10-31T13:53:37;4.03;;;1.88;;
39454;SDS011;25155;41.890;23.446;2022-10-31T13:56:14;3.63;;;1.85;;
39454;SDS011;25155;41.890;23.446;2022-10-31T13:58:58;4.18;;;1.98;;
39454;SDS011;25155;41.890;23.446;2022-10-31T14:01:32;3.15;;;1.90;;
39454;SDS011;25155;41.890;23.446;2022-10-31T14:04:02;4.55;;;1.90;;
39454;SDS011;25155;41.890;23.446;2022-10-31T14:09:15;7.15;;;2.83;;
39454;SDS011;25155;41.890;23.446;2022-10-31T14:11:47;6.03;;;2.40;;
39454;SDS011;25155;41.890;23.446;2022-10-31T14:14:18;7.07;;;2.33;;
39454;SDS011;25155;41.890;23.446;2022-10-31T14:16:51;6.07;;;2.60;;
39454;SDS011;25155;41.890;23.446;2022-10-31T14:19:21;7.25;;;3.13;;
39454;SDS011;25155;41.890;23.446;2022-10-31T14:21:49;6.38;;;2.80;;
39454;SDS011;25155;41.890;23.446;2022-10-31T14:24:30;5.95;;;3.05;;
39454;SDS011;25155;41.890;23.446;2022-10-31T14:27:03;8.18;;;4.10;;
39454;SDS011;25155;41.890;23.446;2022-10-31T14:29:55;8.25;;;3.78;;
39454;SDS011;25155;41.890;23.446;2022-10-31T14:32:33;7.43;;;3.27;;
39454;SDS011;25155;41.890;23.446;2022-10-31T14:35:03;8.57;;;3.10;;
39454;SDS011;25155;41.890;23.446;2022-10-31T14:37:55;5.43;;;2.90;;
39454;SDS011;25155;41.890;23.446;2022-10-31T14:40:41;6.57;;;2.60;;
39454;SDS011;25155;41.890;23.446;2022-10-31T14:46:25;5.70;;;2.30;;
39454;SDS011;25155;41.890;23.446;2022-10-31T14:49:10;7.97;;;2.17;;
39454;SDS011;25155;41.890;23.446;2022-10-31T14:51:49;3.80;;;1.70;;
39454;SDS011;25155;41.890;23.446;2022-10-31T14:54:20;4.07;;;1.70;;
39454;SDS011;25155;41.890;23.446;2022-10-31T14:56:55;5.15;;;2.25;;
39454;SDS011;25155;41.890;23.446;2022-10-31T14:59:26;2.42;;;1.60;;
39454;SDS011;25155;41.890;23.446;2022-10-31T15:02:01;3.55;;;1.90;;
39454;SDS011;25155;41.890;23.446;2022-10-31T15:04:36;2.58;;;1.60;;
39454;SDS011;25155;41.890;23.446;2022-10-31T15:07:06;3.67;;;1.90;;
39454;SDS011;25155;41.890;23.446;2022-10-31T15:09:36;3.42;;;1.98;;
39454;SDS011;25155;41.890;23.446;2022-10-31T15:14:53;4.75;;;2.63;;
39454;SDS011;25155;41.890;23.446;2022-10-31T15:17:22;8.13;;;5.20;;